Time;durP1;ratioP1;P1;durP2;ratioP2;P2;SDS_P1;SDS_P2;PMS_P1;PMS_P2;Temp;Humidity;BMP_temperature;BMP_pressure;BME280_temperature;BME280_humidity;BME280_pressure;Samples;Min_cycle;Max_cycle;Signal;HPM_P1;HPM_P2
2023/04/04 00:00:29;;;;;;;2.57;1.87;;;5.40;99.90;;;;;;5094222;27;20273;-57
2023/04/04 00:02:56;;;;;;;2.87;1.50;;;5.30;99.90;;;;;;5097399;28;20565;-57
2023/04/04 00:05:23;;;;;;;3.77;1.80;;;5.30;99.90;;;;;;5093641;28;20232;-57
2023/04/04 00:07:51;;;;;;;5.77;1.93;;;5.30;99.90;;;;;;5095554;28;20206;-57
2023/04/04 00:10:18;;;;;;;6.20;2.00;;;5.10;99.90;;;;;;5095716;28;20324;-57
2023/04/04 00:12:45;;;;;;;4.23;1.83;;;5.10;99.90;;;;;;5094179;28;20203;-57
2023/04/04 00:15:12;;;;;;;3.93;1.60;;;5.20;99.90;;;;;;5094036;28;20214;-57
2023/04/04 00:17:39;;;;;;;5.40;1.80;;;5.20;99.90;;;;;;5096965;28;20229;-58
2023/04/04 00:20:06;;;;;;;4.30;2.20;;;5.20;99.90;;;;;;5095616;28;20202;-59
2023/04/04 00:22:33;;;;;;;2.63;1.60;;;5.20;99.90;;;;;;5093406;28;20208;-58
2023/04/04 00:25:00;;;;;;;2.47;1.50;;;5.20;99.90;;;;;;5093601;28;20273;-58
2023/04/04 00:27:27;;;;;;;4.13;1.77;;;5.10;99.90;;;;;;5074224;28;20236;-58
2023/04/04 00:29:54;;;;;;;6.97;2.03;;;5.00;99.90;;;;;;5077574;28;20927;-58
2023/04/04 00:32:21;;;;;;;4.27;2.80;;;5.00;99.90;;;;;;5077385;28;20279;-58
2023/04/04 00:34:52;;;;;;;3.07;1.70;;;5.00;99.90;;;;;;5094934;28;20261;-58
2023/04/04 00:37:20;;;;;;;3.07;1.90;;;5.00;99.90;;;;;;5094173;28;20270;-58
2023/04/04 00:39:48;;;;;;;4.83;2.27;;;5.00;99.90;;;;;;5094937;28;20212;-58
2023/04/04 00:42:15;;;;;;;6.20;2.10;;;5.00;99.90;;;;;;5093484;28;20634;-58
2023/04/04 00:44:42;;;;;;;5.93;1.90;;;5.00;99.90;;;;;;5095656;28;20229;-58
2023/04/04 00:47:08;;;;;;;3.30;1.83;;;5.00;99.90;;;;;;5093672;28;20203;-59
2023/04/04 00:49:36;;;;;;;3.33;1.93;;;5.00;99.90;;;;;;5094652;28;20258;-58
2023/04/04 00:52:05;;;;;;;3.40;1.90;;;4.90;99.90;;;;;;5079231;28;20227;-58
2023/04/04 00:54:34;;;;;;;3.03;1.63;;;4.90;99.90;;;;;;5095015;28;20240;-58
2023/04/04 00:57:04;;;;;;;3.93;1.60;;;4.90;99.90;;;;;;5095747;28;20198;-58
2023/04/04 00:59:31;;;;;;;3.03;1.43;;;4.90;99.90;;;;;;5098951;28;20304;-58
2023/04/04 01:01:59;;;;;;;2.53;1.30;;;4.80;99.90;;;;;;5100298;28;20251;-58
2023/04/04 01:04:30;;;;;;;3.10;1.50;;;4.90;99.90;;;;;;5096889;28;20219;-58
2023/04/04 01:06:58;;;;;;;2.97;1.70;;;4.90;99.90;;;;;;5095718;28;20201;-58
2023/04/04 01:09:26;;;;;;;4.87;1.73;;;4.90;99.90;;;;;;5098379;28;20293;-58
2023/04/04 01:11:54;;;;;;;3.70;1.70;;;5.00;99.90;;;;;;5096848;28;20305;-59
2023/04/04 01:14:22;;;;;;;2.33;1.63;;;4.90;99.90;;;;;;5096198;28;20652;-62
2023/04/04 01:16:50;;;;;;;2.70;1.70;;;4.90;99.90;;;;;;5085323;28;20240;-58
2023/04/04 01:19:48;;;;;;;2.97;1.53;;;4.90;99.90;;;;;;5098304;28;20292;-59
2023/04/04 01:22:16;;;;;;;4.30;1.97;;;4.90;99.90;;;;;;5084595;28;20207;-58
2023/04/04 01:24:45;;;;;;;4.23;1.60;;;4.90;99.90;;;;;;5097302;28;20283;-58
2023/04/04 01:27:13;;;;;;;5.47;2.10;;;4.80;99.90;;;;;;5098891;28;20198;-58
2023/04/04 01:29:40;;;;;;;3.97;1.73;;;4.80;99.90;;;;;;5098866;28;20250;-58
2023/04/04 01:32:19;;;;;;;3.57;1.87;;;4.80;99.90;;;;;;5099465;28;20200;-58
2023/04/04 01:34:58;;;;;;;2.90;1.73;;;4.90;99.90;;;;;;5095874;28;20229;-58
2023/04/04 01:37:33;;;;;;;2.40;1.60;;;4.90;99.90;;;;;;5098417;28;20670;-58
2023/04/04 01:40:27;;;;;;;4.43;1.60;;;4.80;99.90;;;;;;5098753;28;20502;-62
2023/04/04 01:42:55;;;;;;;1.93;1.30;;;4.70;99.90;;;;;;5099767;28;20210;-58
2023/04/04 01:45:23;;;;;;;3.50;2.00;;;4.70;99.90;;;;;;5095451;28;20248;-58
2023/04/04 01:47:50;;;;;;;4.40;1.87;;;4.80;99.90;;;;;;5097650;28;20289;-58
2023/04/04 01:50:17;;;;;;;3.27;1.50;;;4.70;99.90;;;;;;5098611;28;20200;-58
2023/04/04 01:52:44;;;;;;;5.93;2.10;;;4.50;99.90;;;;;;5100477;28;20198;-58
2023/04/04 01:55:11;;;;;;;3.73;2.20;;;4.60;99.90;;;;;;5095794;28;20215;-58
2023/04/04 01:57:38;;;;;;;3.33;1.83;;;4.60;99.90;;;;;;5094331;28;20297;-58
2023/04/04 02:00:06;;;;;;;4.33;1.83;;;4.60;99.90;;;;;;5094680;28;20247;-58
2023/04/04 02:02:33;;;;;;;3.70;1.70;;;4.60;99.90;;;;;;5097234;28;20212;-58
2023/04/04 02:05:00;;;;;;;4.90;1.90;;;4.50;99.90;;;;;;5098863;28;20241;-58
2023/04/04 02:07:27;;;;;;;2.47;1.67;;;4.50;99.90;;;;;;5098128;28;20226;-58
2023/04/04 02:09:54;;;;;;;2.63;2.17;;;4.50;99.90;;;;;;5097410;28;20200;-58
2023/04/04 02:12:21;;;;;;;2.97;2.00;;;4.50;99.90;;;;;;5098898;28;20719;-58
2023/04/04 02:14:48;;;;;;;4.70;1.70;;;4.50;99.90;;;;;;5095485;28;20217;-63
2023/04/04 02:17:15;;;;;;;2.13;1.83;;;4.50;99.90;;;;;;5100513;28;20276;-59
2023/04/04 02:19:42;;;;;;;5.70;1.93;;;4.40;99.90;;;;;;5090131;28;20201;-60
2023/04/04 02:22:09;;;;;;;3.30;1.87;;;4.50;99.90;;;;;;5081146;28;20202;-58
2023/04/04 02:24:36;;;;;;;4.97;2.37;;;4.30;99.90;;;;;;5092454;28;20208;-61
2023/04/04 02:27:03;;;;;;;3.93;2.20;;;4.30;99.90;;;;;;5098035;28;20811;-58
2023/04/04 02:29:30;;;;;;;3.70;1.93;;;4.30;99.90;;;;;;5095051;28;20264;-58
2023/04/04 02:31:57;;;;;;;4.47;2.00;;;4.40;99.90;;;;;;5099694;28;20556;-58
2023/04/04 02:34:24;;;;;;;2.30;2.07;;;4.30;99.90;;;;;;5092371;28;20643;-58
2023/04/04 02:36:51;;;;;;;2.07;1.70;;;4.30;99.90;;;;;;5097715;28;20198;-58
2023/04/04 02:39:18;;;;;;;3.07;1.90;;;4.30;99.90;;;;;;5096551;28;20553;-58
2023/04/04 02:41:45;;;;;;;2.83;1.97;;;4.20;99.90;;;;;;5096212;28;20922;-58
2023/04/04 02:44:12;;;;;;;4.90;1.90;;;4.20;99.90;;;;;;5094764;28;20248;-58
2023/04/04 02:46:39;;;;;;;2.83;2.10;;;4.20;99.90;;;;;;5097227;28;20819;-59
2023/04/04 02:49:06;;;;;;;3.07;2.33;;;4.20;99.90;;;;;;5098148;28;20199;-58
2023/04/04 02:51:32;;;;;;;3.23;2.10;;;4.10;99.90;;;;;;5090203;28;20194;-58
2023/04/04 02:54:01;;;;;;;6.13;2.47;;;4.10;99.90;;;;;;5092988;28;20221;-58
2023/04/04 02:56:28;;;;;;;4.33;2.33;;;4.10;99.90;;;;;;5096042;28;20644;-58
2023/04/04 02:58:55;;;;;;;5.63;2.47;;;4.10;99.90;;;;;;5096147;28;20531;-58
2023/04/04 03:01:22;;;;;;;5.50;2.37;;;4.00;99.90;;;;;;5094635;28;20191;-58
2023/04/04 03:03:49;;;;;;;4.20;2.50;;;3.90;99.90;;;;;;5094631;28;20265;-58
2023/04/04 03:06:17;;;;;;;4.60;2.77;;;3.90;99.90;;;;;;5096088;28;20245;-58
2023/04/04 03:08:44;;;;;;;3.57;2.77;;;3.90;99.90;;;;;;5095238;28;20740;-62
2023/04/04 03:11:11;;;;;;;5.40;2.77;;;3.90;99.90;;;;;;5094026;28;20590;-58
2023/04/04 03:13:38;;;;;;;3.87;2.80;;;3.90;99.90;;;;;;5096838;28;20203;-57
2023/04/04 03:16:05;;;;;;;7.63;3.10;;;3.90;99.90;;;;;;5095677;28;20218;-57
2023/04/04 03:18:33;;;;;;;3.80;2.80;;;3.90;99.90;;;;;;5097009;28;20217;-58
2023/04/04 03:21:00;;;;;;;5.53;3.07;;;3.90;99.90;;;;;;5096872;28;20251;-57
2023/04/04 03:23:27;;;;;;;4.17;2.90;;;3.80;99.90;;;;;;5094615;28;20209;-57
2023/04/04 03:25:54;;;;;;;7.57;2.93;;;3.80;99.90;;;;;;5096823;28;20209;-57
2023/04/04 03:28:21;;;;;;;4.40;2.70;;;3.60;99.90;;;;;;5094470;28;20215;-57
2023/04/04 03:30:48;;;;;;;4.23;2.63;;;3.60;99.90;;;;;;5093700;28;20206;-57
2023/04/04 03:33:16;;;;;;;4.27;2.87;;;3.60;99.90;;;;;;5097444;28;20198;-58
2023/04/04 03:35:43;;;;;;;5.27;2.73;;;3.70;99.90;;;;;;5093001;28;20215;-59
2023/04/04 03:38:10;;;;;;;3.77;3.23;;;3.70;99.90;;;;;;5101264;28;20205;-59
2023/04/04 03:40:37;;;;;;;5.00;3.00;;;3.70;99.90;;;;;;5091801;28;20198;-57
2023/04/04 03:43:07;;;;;;;4.77;2.40;;;3.70;99.90;;;;;;5091884;28;20199;-60
2023/04/04 03:45:37;;;;;;;2.90;2.60;;;3.70;99.90;;;;;;5092290;28;20392;-57
2023/04/04 03:48:04;;;;;;;8.47;3.17;;;3.60;99.90;;;;;;5094850;28;20200;-58
2023/04/04 03:50:31;;;;;;;5.13;3.07;;;3.40;99.90;;;;;;5095792;28;20237;-57
2023/04/04 03:52:58;;;;;;;4.03;3.10;;;3.50;99.90;;;;;;5090427;28;20213;-58
2023/04/04 03:55:26;;;;;;;6.37;2.70;;;3.60;99.90;;;;;;5092333;28;20635;-58
2023/04/04 03:57:53;;;;;;;2.60;2.30;;;3.60;99.90;;;;;;5091802;28;20258;-57
2023/04/04 04:00:19;;;;;;;4.63;2.67;;;3.70;99.90;;;;;;5095245;28;20344;-57
2023/04/04 04:02:46;;;;;;;6.97;3.00;;;3.70;99.90;;;;;;5095225;28;20211;-57
2023/04/04 04:05:14;;;;;;;3.97;2.43;;;3.70;99.90;;;;;;5093304;28;20240;-57
2023/04/04 04:07:43;;;;;;;6.90;2.87;;;3.60;99.90;;;;;;5097306;28;20214;-57
2023/04/04 04:10:12;;;;;;;5.53;2.83;;;3.60;99.90;;;;;;5091450;27;20757;-58
2023/04/04 04:12:40;;;;;;;5.53;3.27;;;3.50;99.90;;;;;;5094123;28;20640;-57
2023/04/04 04:15:08;;;;;;;5.70;2.77;;;3.50;99.90;;;;;;5090397;28;20233;-58
2023/04/04 04:17:40;;;;;;;4.40;2.80;;;3.40;99.90;;;;;;5095110;28;20206;-57
2023/04/04 04:20:08;;;;;;;3.60;2.80;;;3.40;99.90;;;;;;5092350;28;20202;-57
2023/04/04 04:22:36;;;;;;;4.90;2.70;;;3.40;99.90;;;;;;5092182;28;20200;-57
2023/04/04 04:25:04;;;;;;;4.07;2.70;;;3.40;99.90;;;;;;5089066;28;20295;-57
2023/04/04 04:27:31;;;;;;;4.77;2.70;;;3.30;99.90;;;;;;5092783;28;20663;-58
2023/04/04 04:29:57;;;;;;;3.80;2.70;;;3.40;99.90;;;;;;5094149;28;20900;-57
2023/04/04 04:32:25;;;;;;;5.23;3.23;;;3.40;99.90;;;;;;5094734;28;20620;-57
2023/04/04 04:34:52;;;;;;;4.83;3.00;;;3.40;99.90;;;;;;5088625;28;20685;-57
2023/04/04 04:37:19;;;;;;;5.73;3.03;;;3.50;99.90;;;;;;5093420;28;20197;-57
2023/04/04 04:39:46;;;;;;;5.13;3.10;;;3.40;99.90;;;;;;5090424;28;20249;-58
2023/04/04 04:42:13;;;;;;;4.33;2.77;;;3.50;99.90;;;;;;5097077;28;21223;-57
2023/04/04 04:44:40;;;;;;;4.73;2.83;;;3.50;99.90;;;;;;5092431;28;20196;-58
2023/04/04 04:47:07;;;;;;;8.13;3.33;;;3.50;99.90;;;;;;5091183;28;20677;-65
2023/04/04 04:49:34;;;;;;;5.43;3.20;;;3.50;99.90;;;;;;5092305;28;20200;-57
2023/04/04 04:52:01;;;;;;;4.90;3.30;;;3.50;99.90;;;;;;5095730;28;20609;-57
2023/04/04 04:54:28;;;;;;;4.80;3.33;;;3.40;99.90;;;;;;5093207;28;20289;-58
2023/04/04 04:56:55;;;;;;;3.60;2.70;;;3.50;99.90;;;;;;5094286;28;20672;-57
2023/04/04 04:59:22;;;;;;;5.27;3.40;;;3.40;99.90;;;;;;5094613;28;20281;-57
2023/04/04 05:01:49;;;;;;;4.70;3.00;;;3.40;99.90;;;;;;5097484;28;20261;-58
2023/04/04 05:04:16;;;;;;;4.87;2.93;;;3.30;99.90;;;;;;5093299;28;20607;-57
2023/04/04 05:06:43;;;;;;;6.07;2.87;;;3.20;99.90;;;;;;5094457;28;20286;-58
2023/04/04 05:09:10;;;;;;;4.67;3.27;;;3.20;99.90;;;;;;5095435;28;20600;-57
2023/04/04 05:11:37;;;;;;;3.60;3.07;;;3.10;99.90;;;;;;5095846;28;20645;-62
2023/04/04 05:14:05;;;;;;;4.93;3.13;;;3.20;99.90;;;;;;5095404;28;20204;-59
2023/04/04 05:16:33;;;;;;;5.90;3.03;;;3.20;99.90;;;;;;5096191;28;20547;-57
2023/04/04 05:18:59;;;;;;;7.07;2.93;;;3.20;99.90;;;;;;5111827;28;20705;-58
2023/04/04 05:21:26;;;;;;;4.10;3.00;;;3.10;99.90;;;;;;5094426;28;20249;-58
2023/04/04 05:23:53;;;;;;;6.43;3.10;;;3.20;99.90;;;;;;5094705;28;20231;-57
2023/04/04 05:26:20;;;;;;;4.77;3.03;;;3.20;99.90;;;;;;5095633;28;20202;-57
2023/04/04 05:28:47;;;;;;;5.83;3.27;;;3.20;99.90;;;;;;5095369;28;20634;-58
2023/04/04 05:31:15;;;;;;;4.37;3.17;;;3.10;99.90;;;;;;5093473;28;20202;-57
2023/04/04 05:33:42;;;;;;;4.90;3.07;;;3.10;99.90;;;;;;5091397;28;20208;-58
2023/04/04 05:36:10;;;;;;;5.20;3.27;;;3.30;99.90;;;;;;5093492;28;20216;-58
2023/04/04 05:38:38;;;;;;;4.70;3.07;;;3.40;99.90;;;;;;5097335;28;20198;-61
2023/04/04 05:41:04;;;;;;;4.53;2.70;;;3.20;99.90;;;;;;5096700;28;20568;-57
2023/04/04 05:43:31;;;;;;;4.10;3.40;;;3.10;99.90;;;;;;5094652;28;20648;-58
2023/04/04 05:45:58;;;;;;;6.20;3.23;;;3.00;99.90;;;;;;5093686;28;20721;-58
2023/04/04 05:48:25;;;;;;;5.33;3.00;;;3.00;99.90;;;;;;5096706;28;20197;-57
2023/04/04 05:50:52;;;;;;;6.00;3.37;;;3.00;99.90;;;;;;5096347;28;20644;-57
2023/04/04 05:53:19;;;;;;;5.27;3.53;;;3.10;99.90;;;;;;5096788;28;20737;-60
2023/04/04 05:55:50;;;;;;;4.00;3.00;;;3.20;99.90;;;;;;5095798;28;20219;-57
2023/04/04 05:58:17;;;;;;;5.40;2.90;;;3.20;99.90;;;;;;5096777;28;20209;-57
2023/04/04 06:00:44;;;;;;;5.20;3.10;;;3.20;99.90;;;;;;5088709;28;20603;-57
2023/04/04 06:03:11;;;;;;;5.20;3.40;;;3.10;99.90;;;;;;5096656;28;20741;-57
2023/04/04 06:05:38;;;;;;;7.10;3.93;;;3.00;99.90;;;;;;5094528;28;20235;-58
2023/04/04 06:08:05;;;;;;;4.03;3.27;;;3.10;99.90;;;;;;5096733;28;20206;-57
2023/04/04 06:10:32;;;;;;;6.17;3.47;;;3.00;99.90;;;;;;5095305;28;20212;-60
2023/04/04 06:12:59;;;;;;;5.57;3.10;;;3.20;99.90;;;;;;5094513;28;20267;-59
2023/04/04 06:15:26;;;;;;;5.70;3.17;;;3.30;99.90;;;;;;5093063;28;20284;-59
2023/04/04 06:17:53;;;;;;;5.53;3.57;;;3.30;99.90;;;;;;4724233;28;9999912;-59
2023/04/04 06:20:21;;;;;;;5.87;4.27;;;3.40;99.90;;;;;;5085509;28;20620;-59
2023/04/04 06:22:48;;;;;;;6.07;3.63;;;3.50;99.90;;;;;;5090439;28;20204;-60
2023/04/04 06:25:15;;;;;;;6.27;3.57;;;3.60;99.90;;;;;;5088030;28;20207;-60
2023/04/04 06:27:42;;;;;;;4.67;3.10;;;3.60;99.90;;;;;;5089054;28;20547;-60
2023/04/04 06:30:10;;;;;;;6.67;3.60;;;3.60;99.90;;;;;;5080566;28;20207;-60
2023/04/04 06:32:37;;;;;;;4.43;3.77;;;3.70;99.90;;;;;;5092461;28;20203;-59
2023/04/04 06:35:05;;;;;;;5.00;3.53;;;3.90;99.90;;;;;;5090247;28;20195;-60
2023/04/04 06:37:32;;;;;;;4.60;2.87;;;4.30;99.90;;;;;;5091611;28;20223;-61
2023/04/04 06:39:59;;;;;;;4.50;4.07;;;4.60;99.90;;;;;;5091607;28;20189;-60
2023/04/04 06:42:27;;;;;;;7.93;3.17;;;4.70;99.90;;;;;;5095792;28;20319;-60
2023/04/04 06:44:53;;;;;;;4.37;3.27;;;4.80;99.90;;;;;;5084525;28;20321;-60
2023/04/04 06:47:21;;;;;;;10.20;4.33;;;5.20;99.90;;;;;;5083251;28;20651;-60
2023/04/04 06:49:48;;;;;;;4.50;3.13;;;5.40;99.90;;;;;;5089148;28;20208;-59
2023/04/04 06:52:15;;;;;;;6.23;3.60;;;5.60;99.90;;;;;;5090927;28;20224;-60
2023/04/04 06:54:42;;;;;;;4.97;3.50;;;5.60;99.90;;;;;;5087886;28;20266;-59
2023/04/04 06:57:09;;;;;;;4.67;3.53;;;5.90;99.90;;;;;;5085458;28;20231;-59
2023/04/04 06:59:36;;;;;;;6.03;3.73;;;6.20;99.90;;;;;;5086169;28;20204;-59
2023/04/04 07:02:03;;;;;;;5.57;3.37;;;6.30;99.90;;;;;;5093308;28;20194;-62
2023/04/04 07:04:33;;;;;;;9.17;3.40;;;6.40;99.90;;;;;;5088666;28;20324;-59
2023/04/04 07:07:00;;;;;;;4.13;3.10;;;6.50;99.90;;;;;;5088127;28;20307;-60
2023/04/04 07:09:27;;;;;;;4.20;3.10;;;6.80;99.90;;;;;;5084808;28;20206;-59
2023/04/04 07:11:55;;;;;;;4.87;2.90;;;6.90;99.90;;;;;;5082929;28;20264;-59
2023/04/04 07:14:24;;;;;;;6.07;2.70;;;7.00;99.90;;;;;;5086954;28;20209;-59
2023/04/04 07:16:52;;;;;;;4.73;3.23;;;7.20;99.90;;;;;;5080542;28;20204;-59
2023/04/04 07:19:19;;;;;;;4.27;2.67;;;7.40;99.90;;;;;;5092598;28;20215;-59
2023/04/04 07:21:46;;;;;;;5.00;2.70;;;7.50;99.90;;;;;;5091339;28;20194;-59
2023/04/04 07:24:12;;;;;;;3.93;2.77;;;7.40;99.90;;;;;;5087062;28;21091;-59
2023/04/04 07:26:40;;;;;;;3.73;3.10;;;7.50;99.90;;;;;;5089705;28;20232;-59
2023/04/04 07:29:07;;;;;;;5.23;3.37;;;7.70;99.90;;;;;;5077588;28;20200;-59
2023/04/04 07:31:33;;;;;;;5.77;3.13;;;7.70;99.90;;;;;;5090960;28;20635;-59
2023/04/04 07:34:02;;;;;;;3.97;2.97;;;7.90;99.90;;;;;;5096607;28;20230;-61
2023/04/04 07:36:29;;;;;;;4.87;3.00;;;7.70;99.90;;;;;;5096745;28;20375;-59
2023/04/04 07:38:56;;;;;;;5.87;2.90;;;8.00;99.90;;;;;;5096663;28;20706;-61
2023/04/04 07:41:24;;;;;;;6.37;2.87;;;7.90;99.90;;;;;;5096297;28;20198;-60
2023/04/04 07:43:51;;;;;;;6.37;3.13;;;8.30;99.90;;;;;;5093699;28;20694;-65
2023/04/04 07:46:19;;;;;;;4.50;3.20;;;8.30;99.90;;;;;;5096713;28;20279;-59
2023/04/04 07:48:46;;;;;;;3.90;2.83;;;8.50;99.90;;;;;;5095666;28;20192;-59
2023/04/04 07:51:14;;;;;;;5.50;2.33;;;8.30;99.90;;;;;;5097643;28;20222;-59
2023/04/04 07:53:41;;;;;;;3.83;2.47;;;8.50;99.90;;;;;;5094733;28;20325;-59
2023/04/04 07:56:08;;;;;;;3.63;2.47;;;8.40;99.90;;;;;;5098005;28;20646;-59
2023/04/04 07:58:35;;;;;;;3.40;2.70;;;8.70;99.90;;;;;;5094613;28;20234;-61
2023/04/04 08:01:02;;;;;;;3.80;2.20;;;8.70;99.90;;;;;;5094729;28;20205;-59
2023/04/04 08:03:29;;;;;;;3.87;2.20;;;8.90;99.90;;;;;;5093447;28;20570;-59
2023/04/04 08:05:56;;;;;;;5.90;2.87;;;8.50;99.90;;;;;;5096098;28;20240;-59
2023/04/04 08:08:23;;;;;;;3.47;2.70;;;8.70;99.90;;;;;;5095385;28;20523;-59
2023/04/04 08:10:51;;;;;;;5.83;2.73;;;8.40;99.90;;;;;;5095086;28;20207;-59
2023/04/04 08:13:17;;;;;;;3.10;2.50;;;8.80;99.90;;;;;;5093994;28;20229;-59
2023/04/04 08:15:45;;;;;;;6.10;2.80;;;9.00;99.90;;;;;;5095666;28;20243;-59
2023/04/04 08:18:12;;;;;;;4.83;2.73;;;9.20;99.90;;;;;;5094944;28;20226;-59
2023/04/04 08:20:39;;;;;;;3.70;2.37;;;9.50;99.90;;;;;;5097012;28;20202;-59
2023/04/04 08:23:06;;;;;;;3.63;2.40;;;9.50;99.90;;;;;;5094150;28;20286;-60
2023/04/04 08:25:33;;;;;;;3.83;2.13;;;9.50;99.90;;;;;;5109825;27;20558;-59
2023/04/04 08:28:04;;;;;;;4.43;2.43;;;9.70;99.90;;;;;;5095855;28;20809;-59
2023/04/04 08:30:31;;;;;;;4.63;2.20;;;9.80;99.90;;;;;;5095815;28;20209;-59
2023/04/04 08:32:58;;;;;;;3.73;1.97;;;10.00;99.90;;;;;;5094996;28;20203;-59
2023/04/04 08:35:25;;;;;;;7.60;2.67;;;10.40;99.90;;;;;;5094075;28;20209;-62
2023/04/04 08:37:52;;;;;;;4.10;2.30;;;10.10;99.90;;;;;;5097229;28;20786;-59
2023/04/04 08:40:19;;;;;;;3.10;1.87;;;10.40;99.90;;;;;;5094382;28;20212;-59
2023/04/04 08:42:50;;;;;;;3.90;1.60;;;10.80;99.90;;;;;;5094514;28;20208;-59
2023/04/04 08:45:18;;;;;;;2.80;2.43;;;10.90;99.90;;;;;;5098276;28;20245;-59
2023/04/04 08:47:47;;;;;;;4.77;1.90;;;10.20;99.90;;;;;;5094821;28;20202;-59
2023/04/04 08:50:15;;;;;;;2.50;1.93;;;10.70;99.90;;;;;;5094576;28;20231;-60
2023/04/04 08:52:44;;;;;;;5.40;1.90;;;11.30;99.90;;;;;;5095877;28;20660;-59
2023/04/04 08:55:11;;;;;;;3.27;1.47;;;11.20;99.90;;;;;;5092983;28;20381;-59
2023/04/04 08:57:38;;;;;;;5.20;1.90;;;10.80;99.90;;;;;;5092981;28;20214;-59
2023/04/04 09:00:06;;;;;;;3.60;1.50;;;10.90;99.90;;;;;;5101713;28;20204;-59
2023/04/04 09:02:41;;;;;;;5.03;1.90;;;11.20;99.90;;;;;;5090016;28;20222;-60
2023/04/04 09:05:09;;;;;;;4.37;1.97;;;11.40;99.90;;;;;;5094960;28;20760;-60
2023/04/04 09:07:37;;;;;;;4.83;1.80;;;12.10;99.90;;;;;;5094881;28;20246;-60
2023/04/04 09:10:09;;;;;;;5.20;1.80;;;11.10;99.90;;;;;;5096291;28;20232;-59
2023/04/04 09:12:43;;;;;;;4.17;1.87;;;11.30;99.90;;;;;;5096536;28;20226;-59
2023/04/04 09:15:11;;;;;;;2.23;1.70;;;12.00;99.90;;;;;;5098381;28;20303;-59
2023/04/04 09:17:38;;;;;;;3.20;1.70;;;11.90;99.90;;;;;;5098180;28;21238;-60
2023/04/04 09:20:35;;;;;;;4.90;1.67;;;12.00;99.90;;;;;;5100446;28;20668;-60
2023/04/04 09:23:06;;;;;;;5.17;2.03;;;12.20;99.90;;;;;;5090847;28;20209;-59
2023/04/04 09:25:35;;;;;;;3.07;1.93;;;12.30;99.90;;;;;;5098396;28;20195;-59
2023/04/04 09:28:05;;;;;;;2.60;1.70;;;12.70;99.90;;;;;;5098983;28;20295;-60
2023/04/04 09:30:34;;;;;;;3.00;1.90;;;12.20;99.90;;;;;;5100627;28;20211;-59
2023/04/04 09:33:03;;;;;;;4.03;1.63;;;12.10;99.90;;;;;;5103972;28;20265;-59
2023/04/04 09:35:40;;;;;;;2.93;1.53;;;12.10;99.90;;;;;;5098966;28;20206;-59
2023/04/04 09:38:07;;;;;;;3.33;1.80;;;11.80;99.90;;;;;;5099828;28;20223;-60
2023/04/04 09:40:40;;;;;;;2.50;1.73;;;12.40;99.90;;;;;;5100159;28;20209;-59
2023/04/04 09:43:08;;;;;;;3.47;1.83;;;12.50;99.90;;;;;;5096440;28;20288;-59
2023/04/04 09:45:39;;;;;;;4.87;2.00;;;12.10;99.90;;;;;;5096620;28;20243;-59
2023/04/04 09:48:08;;;;;;;3.40;1.40;;;12.30;99.90;;;;;;5098347;28;20213;-60
2023/04/04 09:50:36;;;;;;;3.00;1.87;;;12.20;99.90;;;;;;5096577;28;20206;-59
2023/04/04 09:53:04;;;;;;;5.60;2.07;;;12.10;99.90;;;;;;5099133;28;20323;-60
2023/04/04 09:55:37;;;;;;;3.03;1.73;;;11.90;99.90;;;;;;5098180;28;20201;-59
2023/04/04 09:58:15;;;;;;;2.93;1.40;;;12.00;99.90;;;;;;5096521;28;20224;-59
2023/04/04 10:00:47;;;;;;;4.63;1.77;;;11.90;99.90;;;;;;5101191;28;20232;-59
2023/04/04 10:03:15;;;;;;;3.97;2.00;;;11.60;99.90;;;;;;5097309;28;20192;-60
2023/04/04 10:05:44;;;;;;;6.07;1.77;;;11.70;99.90;;;;;;5099939;28;20755;-60
2023/04/04 10:08:20;;;;;;;2.87;1.90;;;12.10;99.90;;;;;;5098861;28;20205;-59
2023/04/04 10:10:48;;;;;;;3.60;2.00;;;11.60;99.90;;;;;;5098229;28;20216;-59
2023/04/04 10:13:39;;;;;;;4.20;2.00;;;11.70;99.90;;;;;;5099100;28;20741;-60
2023/04/04 10:16:07;;;;;;;3.10;1.97;;;12.00;99.90;;;;;;5100159;28;20196;-59
2023/04/04 10:18:35;;;;;;;3.03;1.80;;;11.90;99.90;;;;;;5096333;28;20591;-59
2023/04/04 10:21:07;;;;;;;2.53;1.77;;;11.80;99.90;;;;;;5097137;28;20559;-59
2023/04/04 10:23:40;;;;;;;4.03;1.90;;;12.20;99.90;;;;;;5097481;28;20243;-61
2023/04/04 10:26:07;;;;;;;2.40;1.73;;;11.80;99.90;;;;;;5097927;28;20190;-59
2023/04/04 10:28:34;;;;;;;4.50;1.80;;;11.70;99.90;;;;;;5100058;28;20209;-59
2023/04/04 10:31:28;;;;;;;1.83;1.47;;;11.90;99.90;;;;;;5097396;28;20220;-59
2023/04/04 10:34:13;;;;;;;3.17;1.70;;;11.90;99.90;;;;;;5095881;28;20718;-59
2023/04/04 10:36:50;;;;;;;6.53;1.70;;;11.50;99.90;;;;;;5100342;28;21128;-61
2023/04/04 10:39:28;;;;;;;3.63;1.97;;;12.10;99.90;;;;;;5113566;27;20205;-59
2023/04/04 10:41:55;;;;;;;4.00;1.87;;;12.30;99.90;;;;;;5097124;28;20198;-59
2023/04/04 10:44:32;;;;;;;1.80;1.50;;;11.80;99.90;;;;;;5103522;28;20191;-58
2023/04/04 10:47:14;;;;;;;2.17;1.77;;;12.30;99.90;;;;;;5098922;28;20221;-59
2023/04/04 10:49:45;;;;;;;2.30;1.77;;;11.80;99.90;;;;;;5097253;28;20205;-58
2023/04/04 10:52:15;;;;;;;3.87;2.20;;;12.10;99.90;;;;;;5099979;28;20224;-59
2023/04/04 10:54:43;;;;;;;3.37;1.60;;;11.90;99.90;;;;;;5098707;28;20205;-59
2023/04/04 10:57:13;;;;;;;3.33;1.90;;;11.90;99.90;;;;;;5096748;28;20245;-59
2023/04/04 11:00:03;;;;;;;2.53;1.90;;;12.00;99.90;;;;;;5104108;28;20580;-59
2023/04/04 11:02:50;;;;;;;3.20;2.00;;;11.40;99.90;;;;;;5095354;28;20201;-59
2023/04/04 11:05:33;;;;;;;3.17;2.07;;;11.40;99.90;;;;;;5095943;28;20666;-58
2023/04/04 11:08:02;;;;;;;4.27;1.80;;;11.50;99.90;;;;;;5096404;28;20233;-59
2023/04/04 11:10:36;;;;;;;3.40;1.90;;;11.40;99.90;;;;;;5094672;28;20209;-58
2023/04/04 11:13:25;;;;;;;9.70;3.17;;;11.80;99.90;;;;;;5099211;28;20658;-58
2023/04/04 11:16:03;;;;;;;11.43;4.30;;;12.30;99.90;;;;;;5088900;28;20212;-63
2023/04/04 11:18:31;;;;;;;3.80;1.87;;;12.30;99.90;;;;;;5090319;28;20238;-58
2023/04/04 11:21:05;;;;;;;3.13;1.73;;;12.20;99.90;;;;;;5098561;28;20349;-58
2023/04/04 11:23:47;;;;;;;3.80;2.20;;;12.20;99.90;;;;;;5100908;28;20308;-59
2023/04/04 11:26:33;;;;;;;3.43;1.97;;;11.80;99.90;;;;;;5096023;28;20694;-59
2023/04/04 11:29:01;;;;;;;2.90;1.60;;;11.70;99.90;;;;;;5098345;28;20661;-58
2023/04/04 11:31:32;;;;;;;4.17;2.10;;;13.00;99.90;;;;;;5098497;28;20236;-59
2023/04/04 11:34:09;;;;;;;7.10;1.90;;;12.80;99.90;;;;;;5102625;28;20202;-59
2023/04/04 11:36:37;;;;;;;3.03;1.73;;;12.60;99.90;;;;;;5098929;28;20480;-58
2023/04/04 11:39:24;;;;;;;2.83;1.80;;;12.80;99.90;;;;;;5096219;28;20275;-58
2023/04/04 11:41:54;;;;;;;2.33;1.40;;;13.30;99.90;;;;;;5099277;28;20631;-58
2023/04/04 11:44:23;;;;;;;2.67;1.70;;;13.50;99.90;;;;;;5096768;28;20197;-59
2023/04/04 11:47:09;;;;;;;2.50;1.77;;;13.50;99.90;;;;;;5098036;28;20213;-59
2023/04/04 11:49:44;;;;;;;9.33;2.10;;;12.90;99.90;;;;;;5098511;28;20707;-59
2023/04/04 11:52:13;;;;;;;1.93;1.67;;;12.70;99.90;;;;;;5100200;28;20197;-58
2023/04/04 11:54:42;;;;;;;3.87;1.80;;;12.90;99.90;;;;;;5098942;28;20194;-59
2023/04/04 11:57:20;;;;;;;4.57;1.87;;;13.60;99.90;;;;;;5097030;28;20215;-63
2023/04/04 11:59:49;;;;;;;3.73;1.87;;;13.40;99.90;;;;;;5098997;28;20198;-58
2023/04/04 12:02:26;;;;;;;3.07;1.90;;;13.60;99.90;;;;;;5097396;28;20198;-58
2023/04/04 12:04:54;;;;;;;3.77;2.00;;;13.50;99.90;;;;;;5098078;28;20239;-59
2023/04/04 12:07:23;;;;;;;3.07;1.80;;;13.90;99.90;;;;;;5099026;28;20238;-58
2023/04/04 12:09:51;;;;;;;2.80;1.80;;;14.00;99.90;;;;;;5096437;28;20283;-59
2023/04/04 12:12:18;;;;;;;3.60;2.47;;;14.60;99.90;;;;;;5098579;28;20297;-58
2023/04/04 12:14:45;;;;;;;2.60;1.97;;;15.00;99.90;;;;;;5099077;28;20228;-59
2023/04/04 12:17:14;;;;;;;2.67;1.90;;;14.90;99.90;;;;;;5096826;28;20274;-58
2023/04/04 12:19:43;;;;;;;3.10;2.00;;;14.90;99.90;;;;;;5097447;28;20227;-58
2023/04/04 12:22:10;;;;;;;7.03;2.57;;;15.10;99.90;;;;;;5099423;28;20207;-62
2023/04/04 12:24:37;;;;;;;3.77;2.70;;;15.20;99.90;;;;;;5098228;28;20239;-60
2023/04/04 12:27:05;;;;;;;4.20;2.17;;;15.40;99.90;;;;;;5095852;28;20259;-58
2023/04/04 12:29:35;;;;;;;4.83;2.23;;;15.00;99.90;;;;;;5097802;28;20194;-58
2023/04/04 12:32:03;;;;;;;2.77;1.90;;;14.80;99.90;;;;;;5101613;28;20200;-59
2023/04/04 12:34:32;;;;;;;5.50;2.27;;;15.30;99.90;;;;;;5098227;28;20211;-59
2023/04/04 12:37:01;;;;;;;3.27;2.30;;;15.30;99.90;;;;;;5099715;28;20208;-59
2023/04/04 12:39:29;;;;;;;7.03;2.60;;;15.90;99.90;;;;;;5096210;28;20208;-59
2023/04/04 12:42:03;;;;;;;3.67;1.97;;;16.00;99.90;;;;;;5098007;28;20195;-59
2023/04/04 12:44:38;;;;;;;2.80;2.33;;;15.30;99.90;;;;;;5099087;28;20567;-58
2023/04/04 12:47:06;;;;;;;3.37;2.20;;;15.60;99.90;;;;;;5085783;28;20206;-59
2023/04/04 12:49:41;;;;;;;4.97;2.57;;;15.60;99.90;;;;;;5085754;28;20199;-61
2023/04/04 12:52:25;;;;;;;4.90;2.83;;;14.60;99.90;;;;;;5093644;28;20654;-58
2023/04/04 12:54:52;;;;;;;3.60;2.20;;;15.30;99.90;;;;;;5089692;28;20225;-59
2023/04/04 12:57:34;;;;;;;4.63;2.60;;;14.90;99.90;;;;;;5093206;28;20219;-58
2023/04/04 13:00:03;;;;;;;6.27;3.17;;;14.80;99.90;;;;;;5079290;28;20205;-58
2023/04/04 13:02:30;;;;;;;4.43;2.67;;;14.60;99.90;;;;;;5081573;28;20608;-58